sensor_id;sensor_type;location;lat;lon;timestamp;temperature;humidity
16313;DHT22;8265;52.622;13.296;2022-11-28T01:34:05;3.90;88.80
16313;DHT22;8265;52.622;13.296;2022-11-28T01:52:32;3.30;89.20
16313;DHT22;8265;52.622;13.296;2022-11-28T03:07:14;2.90;89.70
16313;DHT22;8265;52.622;13.296;2022-11-28T03:59:17;2.50;90.90
16313;DHT22;8265;52.622;13.296;2022-11-28T04:37:25;2.50;91.00
16313;DHT22;8265;52.622;13.296;2022-11-28T04:42:54;2.90;89.40
16313;DHT22;8265;52.622;13.296;2022-11-28T04:48:12;2.80;89.60
16313;DHT22;8265;52.622;13.296;2022-11-28T04:54:27;2.70;89.80
16313;DHT22;8265;52.622;13.296;2022-11-28T04:59:37;2.80;89.70
16313;DHT22;8265;52.622;13.296;2022-11-28T05:04:58;2.80;89.60
16313;DHT22;8265;52.622;13.296;2022-11-28T05:12:54;2.80;89.70
16313;DHT22;8265;52.622;13.296;2022-11-28T05:18:15;2.90;89.40
16313;DHT22;8265;52.622;13.296;2022-11-28T05:25:08;3.00;89.00
16313;DHT22;8265;52.622;13.296;2022-11-28T05:30:29;3.10;88.70
16313;DHT22;8265;52.622;13.296;2022-11-28T05:39:25;3.10;88.30
16313;DHT22;8265;52.622;13.296;2022-11-28T05:44:46;3.10;88.30
16313;DHT22;8265;52.622;13.296;2022-11-28T05:50:51;3.10;87.60
16313;DHT22;8265;52.622;13.296;2022-11-28T05:56:43;3.10;87.70
16313;DHT22;8265;52.622;13.296;2022-11-28T06:02:21;3.00;88.10
16313;DHT22;8265;52.622;13.296;2022-11-28T06:07:42;3.10;87.20
16313;DHT22;8265;52.622;13.296;2022-11-28T06:20:22;3.10;87.00
16313;DHT22;8265;52.622;13.296;2022-11-28T06:25:43;3.00;87.00
16313;DHT22;8265;52.622;13.296;2022-11-28T06:31:07;3.10;86.80
16313;DHT22;8265;52.622;13.296;2022-11-28T06:36:25;2.90;87.50
16313;DHT22;8265;52.622;13.296;2022-11-28T06:41:46;2.70;88.10
16313;DHT22;8265;52.622;13.296;2022-11-28T06:47:07;2.50;89.00
16313;DHT22;8265;52.622;13.296;2022-11-28T06:52:28;2.50;89.00
16313;DHT22;8265;52.622;13.296;2022-11-28T06:57:49;2.40;89.70
16313;DHT22;8265;52.622;13.296;2022-11-28T07:03:10;2.40;89.60
16313;DHT22;8265;52.622;13.296;2022-11-28T07:08:31;2.40;89.70
16313;DHT22;8265;52.622;13.296;2022-11-28T07:13:52;2.50;90.50
16313;DHT22;8265;52.622;13.296;2022-11-28T07:19:13;2.50;89.60
16313;DHT22;8265;52.622;13.296;2022-11-28T07:24:34;2.50;89.70
16313;DHT22;8265;52.622;13.296;2022-11-28T07:29:55;2.80;89.60
16313;DHT22;8265;52.622;13.296;2022-11-28T07:35:16;3.00;88.80
16313;DHT22;8265;52.622;13.296;2022-11-28T07:40:37;3.00;88.60
16313;DHT22;8265;52.622;13.296;2022-11-28T07:45:58;3.10;87.70
16313;DHT22;8265;52.622;13.296;2022-11-28T07:51:20;3.10;87.70
16313;DHT22;8265;52.622;13.296;2022-11-28T07:56:40;3.10;88.40
16313;DHT22;8265;52.622;13.296;2022-11-28T08:02:01;3.20;87.60
16313;DHT22;8265;52.622;13.296;2022-11-28T08:07:22;3.30;86.90
16313;DHT22;8265;52.622;13.296;2022-11-28T08:12:42;3.50;86.80
16313;DHT22;8265;52.622;13.296;2022-11-28T08:18:04;3.50;86.20
16313;DHT22;8265;52.622;13.296;2022-11-28T08:23:24;3.50;86.70
16313;DHT22;8265;52.622;13.296;2022-11-28T08:28:46;3.50;86.70
16313;DHT22;8265;52.622;13.296;2022-11-28T08:34:07;3.50;86.00
16313;DHT22;8265;52.622;13.296;2022-11-28T08:39:27;3.50;86.90
16313;DHT22;8265;52.622;13.296;2022-11-28T08:44:48;3.50;86.10
16313;DHT22;8265;52.622;13.296;2022-11-28T08:50:10;3.50;86.50
16313;DHT22;8265;52.622;13.296;2022-11-28T08:55:33;3.50;87.00
16313;DHT22;8265;52.622;13.296;2022-11-28T09:00:51;3.70;85.50
16313;DHT22;8265;52.622;13.296;2022-11-28T09:06:13;3.80;85.10
16313;DHT22;8265;52.622;13.296;2022-11-28T09:11:33;3.70;85.70
16313;DHT22;8265;52.622;13.296;2022-11-28T09:16:54;3.90;85.00
16313;DHT22;8265;52.622;13.296;2022-11-28T09:22:15;4.00;84.80
16313;DHT22;8265;52.622;13.296;2022-11-28T09:27:36;4.10;83.70
16313;DHT22;8265;52.622;13.296;2022-11-28T09:32:57;4.30;83.90
16313;DHT22;8265;52.622;13.296;2022-11-28T09:38:18;4.40;83.50
16313;DHT22;8265;52.622;13.296;2022-11-28T09:43:42;4.30;82.80
16313;DHT22;8265;52.622;13.296;2022-11-28T09:49:02;4.20;83.00
16313;DHT22;8265;52.622;13.296;2022-11-28T09:54:28;4.30;83.80
16313;DHT22;8265;52.622;13.296;2022-11-28T09:59:42;4.50;82.10
16313;DHT22;8265;52.622;13.296;2022-11-28T10:05:18;4.50;82.30
16313;DHT22;8265;52.622;13.296;2022-11-28T10:10:37;4.70;81.20
16313;DHT22;8265;52.622;13.296;2022-11-28T10:31:48;4.60;81.90
16313;DHT22;8265;52.622;13.296;2022-11-28T10:37:14;4.60;81.40
16313;DHT22;8265;52.622;13.296;2022-11-28T10:42:36;4.40;81.60
16313;DHT22;8265;52.622;13.296;2022-11-28T10:48:11;4.70;81.20
16313;DHT22;8265;52.622;13.296;2022-11-28T10:53:18;4.70;80.50
16313;DHT22;8265;52.622;13.296;2022-11-28T11:03:54;5.00;80.90
16313;DHT22;8265;52.622;13.296;2022-11-28T11:09:15;5.10;81.60
16313;DHT22;8265;52.622;13.296;2022-11-28T11:14:37;5.30;79.40
16313;DHT22;8265;52.622;13.296;2022-11-28T11:19:57;5.20;79.00
16313;DHT22;8265;52.622;13.296;2022-11-28T11:25:18;5.00;79.60
16313;DHT22;8265;52.622;13.296;2022-11-28T11:30:39;5.30;79.40
16313;DHT22;8265;52.622;13.296;2022-11-28T11:36:04;5.50;78.80
16313;DHT22;8265;52.622;13.296;2022-11-28T11:41:28;5.30;78.90
16313;DHT22;8265;52.622;13.296;2022-11-28T11:47:03;5.30;78.10
16313;DHT22;8265;52.622;13.296;2022-11-28T11:52:25;5.50;78.90
16313;DHT22;8265;52.622;13.296;2022-11-28T11:57:37;5.60;77.90
16313;DHT22;8265;52.622;13.296;2022-11-28T12:02:48;5.70;76.90
16313;DHT22;8265;52.622;13.296;2022-11-28T12:08:18;5.60;77.50
16313;DHT22;8265;52.622;13.296;2022-11-28T12:13:27;5.80;76.70
16313;DHT22;8265;52.622;13.296;2022-11-28T12:18:59;6.00;76.60
16313;DHT22;8265;52.622;13.296;2022-11-28T12:24:13;6.20;76.30
16313;DHT22;8265;52.622;13.296;2022-11-28T12:46:04;5.50;77.80
16313;DHT22;8265;52.622;13.296;2022-11-28T13:28:41;5.40;80.90
16313;DHT22;8265;52.622;13.296;2022-11-28T13:33:51;5.00;82.00
16313;DHT22;8265;52.622;13.296;2022-11-28T13:49:45;5.00;81.60
16313;DHT22;8265;52.622;13.296;2022-11-28T13:55:31;4.70;82.50
16313;DHT22;8265;52.622;13.296;2022-11-28T14:00:27;4.70;82.50
16313;DHT22;8265;52.622;13.296;2022-11-28T14:05:48;4.90;82.10
16313;DHT22;8265;52.622;13.296;2022-11-28T14:27:15;4.20;84.50
16313;DHT22;8265;52.622;13.296;2022-11-28T14:32:34;4.20;85.10
16313;DHT22;8265;52.622;13.296;2022-11-28T14:37:54;4.20;84.90
16313;DHT22;8265;52.622;13.296;2022-11-28T14:43:34;4.10;84.50
16313;DHT22;8265;52.622;13.296;2022-11-28T14:48:37;3.90;85.30
16313;DHT22;8265;52.622;13.296;2022-11-28T14:53:57;3.80;85.30
16313;DHT22;8265;52.622;13.296;2022-11-28T14:59:18;3.60;86.30
16313;DHT22;8265;52.622;13.296;2022-11-28T15:04:58;3.70;85.50
16313;DHT22;8265;52.622;13.296;2022-11-28T15:10:08;3.90;85.10
16313;DHT22;8265;52.622;13.296;2022-11-28T15:15:21;3.60;85.40
16313;DHT22;8265;52.622;13.296;2022-11-28T15:20:49;3.70;85.30
16313;DHT22;8265;52.622;13.296;2022-11-28T15:26:03;3.50;86.10
16313;DHT22;8265;52.622;13.296;2022-11-28T15:31:31;3.50;86.20
16313;DHT22;8265;52.622;13.296;2022-11-28T15:36:45;3.40;86.60
16313;DHT22;8265;52.622;13.296;2022-11-28T15:42:06;3.50;86.20
16313;DHT22;8265;52.622;13.296;2022-11-28T15:47:27;3.50;85.90
16313;DHT22;8265;52.622;13.296;2022-11-28T15:53:01;3.70;85.10
16313;DHT22;8265;52.622;13.296;2022-11-28T16:03:31;3.40;86.20
16313;DHT22;8265;52.622;13.296;2022-11-28T16:14:23;3.30;86.80
16313;DHT22;8265;52.622;13.296;2022-11-28T16:19:33;3.30;86.50
16313;DHT22;8265;52.622;13.296;2022-11-28T16:24:54;3.30;86.40
16313;DHT22;8265;52.622;13.296;2022-11-28T16:30:34;3.20;87.10
16313;DHT22;8265;52.622;13.296;2022-11-28T16:35:36;3.30;87.00
16313;DHT22;8265;52.622;13.296;2022-11-28T16:40:59;3.20;86.90
16313;DHT22;8265;52.622;13.296;2022-11-28T16:46:21;3.10;87.10
16313;DHT22;8265;52.622;13.296;2022-11-28T16:51:39;3.20;86.60
16313;DHT22;8265;52.622;13.296;2022-11-28T16:57:09;3.20;86.60
16313;DHT22;8265;52.622;13.296;2022-11-28T17:02:21;3.10;86.90
16313;DHT22;8265;52.622;13.296;2022-11-28T17:07:41;3.10;87.10
16313;DHT22;8265;52.622;13.296;2022-11-28T17:13:02;3.30;87.10
16313;DHT22;8265;52.622;13.296;2022-11-28T17:18:23;3.30;86.20
16313;DHT22;8265;52.622;13.296;2022-11-28T17:23:44;3.30;86.40
16313;DHT22;8265;52.622;13.296;2022-11-28T17:29:08;3.10;87.10
16313;DHT22;8265;52.622;13.296;2022-11-28T17:34:27;3.00;87.50
16313;DHT22;8265;52.622;13.296;2022-11-28T17:39:47;3.00;87.50
16313;DHT22;8265;52.622;13.296;2022-11-28T17:45:11;3.10;87.30
16313;DHT22;8265;52.622;13.296;2022-11-28T17:50:29;3.10;86.90
16313;DHT22;8265;52.622;13.296;2022-11-28T17:55:50;3.30;87.30
16313;DHT22;8265;52.622;13.296;2022-11-28T18:01:13;3.10;87.20
16313;DHT22;8265;52.622;13.296;2022-11-28T18:06:32;3.00;87.60
16313;DHT22;8265;52.622;13.296;2022-11-28T18:11:53;3.10;87.40
16313;DHT22;8265;52.622;13.296;2022-11-28T18:17:14;3.30;86.60
16313;DHT22;8265;52.622;13.296;2022-11-28T18:22:35;3.10;87.20
16313;DHT22;8265;52.622;13.296;2022-11-28T18:27:56;3.10;87.90
16313;DHT22;8265;52.622;13.296;2022-11-28T18:33:17;3.00;87.60
16313;DHT22;8265;52.622;13.296;2022-11-28T18:38:39;3.10;87.60
16313;DHT22;8265;52.622;13.296;2022-11-28T18:44:00;3.10;87.60
16313;DHT22;8265;52.622;13.296;2022-11-28T18:49:20;3.10;87.60
16313;DHT22;8265;52.622;13.296;2022-11-28T18:54:41;2.80;88.70
16313;DHT22;8265;52.622;13.296;2022-11-28T19:00:03;3.10;87.80
16313;DHT22;8265;52.622;13.296;2022-11-28T19:05:23;3.10;87.60
16313;DHT22;8265;52.622;13.296;2022-11-28T19:10:44;3.00;87.90
16313;DHT22;8265;52.622;13.296;2022-11-28T19:16:06;2.90;88.60
16313;DHT22;8265;52.622;13.296;2022-11-28T19:21:27;2.80;89.00
16313;DHT22;8265;52.622;13.296;2022-11-28T19:26:47;2.80;88.90
16313;DHT22;8265;52.622;13.296;2022-11-28T19:32:08;2.80;88.60
16313;DHT22;8265;52.622;13.296;2022-11-28T19:37:29;2.90;88.90
16313;DHT22;8265;52.622;13.296;2022-11-28T19:42:50;2.90;88.90
16313;DHT22;8265;52.622;13.296;2022-11-28T19:48:11;2.80;89.70
16313;DHT22;8265;52.622;13.296;2022-11-28T19:53:33;2.90;88.60
16313;DHT22;8265;52.622;13.296;2022-11-28T19:58:53;2.90;88.60
16313;DHT22;8265;52.622;13.296;2022-11-28T20:04:14;2.80;88.80
16313;DHT22;8265;52.622;13.296;2022-11-28T20:09:35;2.90;88.90
16313;DHT22;8265;52.622;13.296;2022-11-28T20:14:56;3.00;88.50
16313;DHT22;8265;52.622;13.296;2022-11-28T20:20:17;3.10;88.30
16313;DHT22;8265;52.622;13.296;2022-11-28T20:25:38;3.10;87.80
16313;DHT22;8265;52.622;13.296;2022-11-28T20:30:59;2.90;88.50
16313;DHT22;8265;52.622;13.296;2022-11-28T20:36:21;3.00;88.70
16313;DHT22;8265;52.622;13.296;2022-11-28T20:41:41;3.00;88.60
16313;DHT22;8265;52.622;13.296;2022-11-28T20:47:02;2.80;89.00
16313;DHT22;8265;52.622;13.296;2022-11-28T20:52:23;3.00;88.90
16313;DHT22;8265;52.622;13.296;2022-11-28T20:57:44;2.80;89.00
16313;DHT22;8265;52.622;13.296;2022-11-28T21:03:05;3.00;88.70
16313;DHT22;8265;52.622;13.296;2022-11-28T21:08:33;3.10;88.50
16313;DHT22;8265;52.622;13.296;2022-11-28T21:13:54;3.20;87.70
16313;DHT22;8265;52.622;13.296;2022-11-28T21:19:15;3.10;87.80
16313;DHT22;8265;52.622;13.296;2022-11-28T21:24:36;3.00;88.50
16313;DHT22;8265;52.622;13.296;2022-11-28T21:29:57;3.00;88.80
16313;DHT22;8265;52.622;13.296;2022-11-28T21:35:18;2.90;89.00
16313;DHT22;8265;52.622;13.296;2022-11-28T21:40:39;2.90;89.00
16313;DHT22;8265;52.622;13.296;2022-11-28T21:46:04;2.90;89.30
16313;DHT22;8265;52.622;13.296;2022-11-28T21:51:22;2.90;89.20
16313;DHT22;8265;52.622;13.296;2022-11-28T21:56:42;3.10;89.20
16313;DHT22;8265;52.622;13.296;2022-11-28T22:02:03;3.00;88.70
16313;DHT22;8265;52.622;13.296;2022-11-28T22:07:24;2.90;89.20
16313;DHT22;8265;52.622;13.296;2022-11-28T22:12:45;2.80;89.30
16313;DHT22;8265;52.622;13.296;2022-11-28T22:18:06;2.80;89.50
16313;DHT22;8265;52.622;13.296;2022-11-28T22:23:27;2.80;89.70
16313;DHT22;8265;52.622;13.296;2022-11-28T22:28:48;2.50;90.50
16313;DHT22;8265;52.622;13.296;2022-11-28T22:34:09;2.70;90.00
16313;DHT22;8265;52.622;13.296;2022-11-28T22:39:30;2.80;89.70
16313;DHT22;8265;52.622;13.296;2022-11-28T22:44:51;3.00;89.30
16313;DHT22;8265;52.622;13.296;2022-11-28T22:50:12;2.80;89.80
16313;DHT22;8265;52.622;13.296;2022-11-28T22:55:33;2.70;90.10
16313;DHT22;8265;52.622;13.296;2022-11-28T23:00:54;2.80;89.90
16313;DHT22;8265;52.622;13.296;2022-11-28T23:06:16;2.80;89.70
16313;DHT22;8265;52.622;13.296;2022-11-28T23:11:36;2.70;90.10
16313;DHT22;8265;52.622;13.296;2022-11-28T23:16:56;2.70;89.70
16313;DHT22;8265;52.622;13.296;2022-11-28T23:22:18;2.60;90.10
16313;DHT22;8265;52.622;13.296;2022-11-28T23:27:38;2.50;90.30
16313;DHT22;8265;52.622;13.296;2022-11-28T23:32:59;2.40;90.90
16313;DHT22;8265;52.622;13.296;2022-11-28T23:38:20;2.30;91.20
16313;DHT22;8265;52.622;13.296;2022-11-28T23:43:42;2.30;91.40
16313;DHT22;8265;52.622;13.296;2022-11-28T23:49:03;2.20;91.60
16313;DHT22;8265;52.622;13.296;2022-11-28T23:54:23;2.20;91.60
16313;DHT22;8265;52.622;13.296;2022-11-28T23:59:44;2.30;91.20
